Buoy 56916

sailwx.info

Track history (hours):
 
Tides and Currents Weather Stations Pressure Air Temp Water Temp Dewpoint Dewpoint Depression Visibility Wind Speed Wind Dir Waves Ship Positions

Drifting buoy 56916

Last reported at 2016-Sep-26 21:00 UTC. Time now 2016-Sep-27 00:13 UTC.
Position S 52°18' E 133°15'.

Barometer 981.4 mb
Water temperature 6.3 ° C

Date/timePositionNaut miles runAvg speedWind from/ knotsBaromVisibWave heightAir tempDewpointWater temp
2016-Sep-26 21:00S 52°18' E 133°15'1 0.6 981.4 6.3
2016-Sep-26 19:00S 52°18' E 133°13'1 1.2 982.0 6.3
2016-Sep-26 18:00S 52°18' E 133°12'1 0.9 982.0 6.3
2016-Sep-26 17:00S 52°17' E 133°10'0 0.3 982.8 6.3
2016-Sep-26 16:00S 52°18' E 133°11'1 0.9 983.8 6.3
2016-Sep-26 15:00S 52°17' E 133°09'1 0.2 984.6 6.2
2016-Sep-26 12:00S 52°17' E 133°08'1 0.4 987.8 6.0
2016-Sep-26 10:00S 52°17' E 133°09'1 1.4 989.5 5.8
2016-Sep-26 09:00S 52°17' E 133°07'0 0.2 990.1 5.7
2016-Sep-26 08:00S 52°18' E 133°07'0 0.0 990.8 5.5
2016-Sep-26 07:00S 52°18' E 133°07'2 0.3 991.3 5.4
2016-Sep-26 01:00S 52°18' E 133°04'2 0.6 995.3 5.3
2016-Sep-25 22:00S 52°18' E 133°02'1 0.3 995.7 5.2
2016-Sep-25 20:00S 52°19' E 133°02'1 1.2 995.6 5.2
2016-Sep-25 19:00S 52°18' E 133°01'0 0.3 995.4 5.2
2016-Sep-25 18:00S 52°18' E 133°01'1 0.8 995.1 5.3
2016-Sep-25 17:00S 52°18' E 132°59'0 0.1 995.1 5.3
2016-Sep-25 16:00S 52°18' E 132°59'2 0.8 995.1 5.3
2016-Sep-25 14:00S 52°19' E 132°57'0 0.0 994.6 5.3
2016-Sep-25 13:00S 52°19' E 132°57'0 0.4 994.6 5.3
2016-Sep-25 12:00S 52°19' E 132°56'2 0.6 994.3 5.3
2016-Sep-25 08:00S 52°18' E 132°53'1 0.7 992.2 5.4
2016-Sep-25 07:00S 52°18' E 132°51'0 0.1 991.8 5.4
2016-Sep-25 06:00S 52°18' E 132°52'3 1.5 991.8 5.4
2016-Sep-25 04:00S 52°18' E 132°47'0 0.0 991.1 5.3
2016-Sep-25 01:00S 52°18' E 132°47'0 0.0 990.5 5.3
2016-Sep-25 00:00S 52°18' E 132°47'5 0.9 990.1 5.4
2016-Sep-24 18:00S 52°17' E 132°38'0 0.0 989.7 5.4
2016-Sep-24 17:00S 52°17' E 132°38'0 0.2 989.9 5.4
2016-Sep-24 16:00S 52°17' E 132°38'2 1.2 990.5 5.4
2016-Sep-24 14:00S 52°17' E 132°34'1 0.3 990.8 5.5
2016-Sep-24 10:00S 52°17' E 132°32'1 0.6 990.3 5.5
2016-Sep-24 09:00S 52°17' E 132°31'2 0.6 989.8 5.5
2016-Sep-24 06:00S 52°17' E 132°28'1 0.3 988.4 5.5
2016-Sep-24 04:00S 52°17' E 132°27'2 0.5 988.1 5.6
2016-Sep-24 00:00S 52°17' E 132°24'1 0.4 988.3 5.6
2016-Sep-23 21:00S 52°16' E 132°22'0 0.3 988.3 5.4
2016-Sep-23 20:00S 52°16' E 132°21'1 0.8 988.5 5.4
2016-Sep-23 19:00S 52°16' E 132°21'0 0.1 988.9 5.4
2016-Sep-23 18:00S 52°16' E 132°21'1 0.5 989.3 5.4
2016-Sep-23 16:00S 52°15' E 132°19'3 0.7 990.7 5.3
2016-Sep-23 11:00S 52°12' E 132°16'1 1.2 992.9 5.4
2016-Sep-23 10:00S 52°11' E 132°15'0 0.5 992.9 5.5
2016-Sep-23 09:00S 52°11' E 132°15'1 0.4 993.1 5.5
2016-Sep-23 07:00S 52°10' E 132°15'2 2.4 993.4 5.5
2016-Sep-23 06:00S 52°08' E 132°12'0 0.0 993.7 5.4
2016-Sep-23 05:00S 52°08' E 132°12'5 0.9 993.6 5.4
2016-Sep-23 00:00S 52°05' E 132°08'4 1.3 996.7 5.2
2016-Sep-22 21:00S 52°01' E 132°04'2 1.7 998.1 5.1
2016-Sep-22 20:00S 52°01' E 132°02'0 0.2 998.8 5.1
2016-Sep-22 19:00S 52°01' E 132°02'0 0.4 999.3 5.1
2016-Sep-22 18:00S 52°00' E 132°01'3 1.6 999.5 5.1
2016-Sep-22 16:00S 51°59' E 131°57'0 0.0 1000.7 5.1
2016-Sep-22 15:00S 51°59' E 131°57'1 1.5 1001.2 5.1
2016-Sep-22 14:00S 51°58' E 131°55'2 0.7 1001.7 5.1
2016-Sep-22 11:00S 51°56' E 131°53'1 0.6 1003.7 5.2
2016-Sep-22 09:00S 51°56' E 131°51'1 1.3 1004.4 5.1
2016-Sep-22 08:00S 51°56' E 131°49'0 0.4 1004.6 5.1
2016-Sep-22 07:00S 51°56' E 131°49'1 1.3 1004.9 5.1
2016-Sep-22 06:00S 51°56' E 131°47'0 0.0 1005.9 5.2
2016-Sep-22 05:00S 51°56' E 131°47'3 0.8 1006.4 5.2
2016-Sep-22 01:00S 51°58' E 131°42'1 0.5 1009.6 5.0
2016-Sep-21 23:00S 51°58' E 131°40'1 1.4 1010.5 4.9
2016-Sep-21 22:00S 51°59' E 131°39'1 0.7 1010.7 4.7
2016-Sep-21 21:00S 51°59' E 131°38'1 0.6 1010.4 4.7
2016-Sep-21 19:00S 51°60' E 131°36'2 0.9 1010.1 4.6
2016-Sep-21 17:00S 52°00' E 131°34'1 0.4 1009.9 4.6
2016-Sep-21 15:00S 52°00' E 131°32'3 0.5 1009.1 4.7
2016-Sep-21 10:00S 52°01' E 131°28'1 1.1 1004.8 4.7
2016-Sep-21 09:00S 52°02' E 131°28'1 1.0 1003.0 4.7
2016-Sep-21 08:00S 52°02' E 131°30'2 1.7 1000.7 4.7
2016-Sep-21 07:00S 52°03' E 131°27'2 1.8 999.0 4.7
2016-Sep-21 06:00S 52°04' E 131°24'0 0.1 996.9 4.7
2016-Sep-21 05:00S 52°04' E 131°24'5 1.3 994.6 4.7
2016-Sep-21 01:00S 52°04' E 131°16'0 0.0 990.2 4.7
2016-Sep-21 00:00S 52°04' E 131°16'1 1.3 991.0 4.7
2016-Sep-20 23:00S 52°04' E 131°14'1 0.8 991.8 4.7
2016-Sep-20 22:00S 52°04' E 131°12'0 0.3 992.5 4.7
2016-Sep-20 21:00S 52°04' E 131°12'2 1.5 993.1 4.7
2016-Sep-20 20:00S 52°04' E 131°10'0 0.1 994.0 4.7
2016-Sep-20 19:00S 52°04' E 131°10'4 1.8 994.9 4.7
2016-Sep-20 17:00S 52°03' E 131°04'2 0.4 996.9 4.8
2016-Sep-20 12:00S 52°04' E 131°01'5 1.0 999.4 4.9
2016-Sep-20 07:00S 52°05' E 130°53'2 1.1 997.5 5.1
2016-Sep-20 05:00S 52°05' E 130°49'4 0.9 996.7 5.2
2016-Sep-20 01:00S 52°05' E 130°43'1 1.5 996.4 5.3
2016-Sep-20 00:00S 52°06' E 130°41'0 0.0 996.1 5.2
2016-Sep-19 23:00S 52°06' E 130°41'1 0.7 995.8 5.1
2016-Sep-19 22:00S 52°05' E 130°40'2 1.6 994.9 5.2
2016-Sep-19 21:00S 52°06' E 130°37'1 1.3 993.7 5.0
2016-Sep-19 20:00S 52°06' E 130°35'1 0.9 992.9 5.2
2016-Sep-19 19:00S 52°07' E 130°35'3 2.8 991.3 5.2
2016-Sep-19 18:00S 52°07' E 130°30'3 0.8 990.7 5.2
2016-Sep-19 14:00S 52°09' E 130°26'3 0.9 987.1 5.4
2016-Sep-19 11:00S 52°10' E 130°22'0 0.3 984.1 5.4
2016-Sep-19 10:00S 52°10' E 130°23'2 0.7 983.0 5.4
2016-Sep-19 07:00S 52°11' E 130°19'2 1.0 979.4 5.4
2016-Sep-19 05:00S 52°11' E 130°16'3 1.1 977.4 5.5
2016-Sep-19 02:00S 52°11' E 130°11'1 0.5 975.8 5.5
2016-Sep-19 00:00S 52°11' E 130°09'1 0.5 975.0 5.5
2016-Sep-18 22:00S 52°12' E 130°08'3 1.4 974.0 5.5
2016-Sep-18 20:00S 52°12' E 130°04'2 0.8 972.9 5.5
2016-Sep-18 18:00S 52°13' E 130°01'0 0.0 971.0 5.4
2016-Sep-18 17:00S 52°13' E 130°01'1 1.5 970.6 5.4
2016-Sep-18 16:00S 52°12' E 129°59'1 0.7 971.0 5.4
2016-Sep-18 15:00S 52°12' E 129°57'1 0.7 971.2 5.4
2016-Sep-18 13:00S 52°12' E 129°55'2 0.6 973.1 5.4
2016-Sep-18 10:00S 52°12' E 129°52'0 0.3 978.5 5.4
2016-Sep-18 09:00S 52°12' E 129°52'1 0.5 980.0 5.4
2016-Sep-18 08:00S 52°12' E 129°51'0 0.0 981.3 5.3
2016-Sep-18 07:00S 52°12' E 129°51'1 1.1 982.3 5.2
2016-Sep-18 06:00S 52°12' E 129°49'0 0.0 983.5 5.2
2016-Sep-18 05:00S 52°12' E 129°49'5 1.0 985.0 5.2
2016-Sep-18 00:00S 52°10' E 129°42'0 0.0 989.7 5.2
2016-Sep-17 23:00S 52°10' E 129°42'0 0.3 990.4 5.1
2016-Sep-17 22:00S 52°10' E 129°41'3 1.3 990.6 5.1
2016-Sep-17 20:00S 52°09' E 129°37'6 2.1 991.1 5.1
2016-Sep-17 17:00S 52°08' E 129°27'0 0.0 992.8 5.1
2016-Sep-17 16:00S 52°08' E 129°27'2 2.3 992.8 4.9
2016-Sep-17 15:00S 52°08' E 129°24'1 1.1 993.0 5.1
2016-Sep-17 14:00S 52°08' E 129°22'2 2.0 993.0 4.9
2016-Sep-17 13:00S 52°08' E 129°19'1 0.6 992.9 4.9
2016-Sep-17 12:00S 52°08' E 129°18'7 1.4 992.8 4.9
2016-Sep-17 07:00S 52°13' E 129°09'9 9.0 990.7 5.6
2016-Sep-17 06:00S 52°16' E 128°55'1 0.2 990.3 5.7
2016-Sep-17 01:00S 52°16' E 128°55'3 1.5 989.3 5.9
2016-Sep-16 23:00S 52°17' E 128°50'3 3.0 989.7 5.9
2016-Sep-16 22:00S 52°16' E 128°45'   990.1 5.9
Track history (hours):
 
Tides and Currents Weather Stations Pressure Air Temp Water Temp Dewpoint Dewpoint Depression Visibility Wind Speed Wind Dir Waves Ship Positions

Drifting buoy 56916

Last reported at 2016-Sep-26 21:00 UTC. Time now 2016-Sep-27 00:13 UTC.
Position S 52°18' E 133°15'.

Barometer 981.4 mb
Water temperature 6.3 ° C

Date/timePositionNaut miles runAvg speedWind from/ knotsBaromVisibWave heightAir tempDewpointWater temp
2016-Sep-26 21:00S 52°18' E 133°15'1 0.6 981.4 6.3
2016-Sep-26 19:00S 52°18' E 133°13'1 1.2 982.0 6.3
2016-Sep-26 18:00S 52°18' E 133°12'1 0.9 982.0 6.3
2016-Sep-26 17:00S 52°17' E 133°10'0 0.3 982.8 6.3
2016-Sep-26 16:00S 52°18' E 133°11'1 0.9 983.8 6.3
2016-Sep-26 15:00S 52°17' E 133°09'1 0.2 984.6 6.2
2016-Sep-26 12:00S 52°17' E 133°08'1 0.4 987.8 6.0
2016-Sep-26 10:00S 52°17' E 133°09'1 1.4 989.5 5.8
2016-Sep-26 09:00S 52°17' E 133°07'0 0.2 990.1 5.7
2016-Sep-26 08:00S 52°18' E 133°07'0 0.0 990.8 5.5
2016-Sep-26 07:00S 52°18' E 133°07'2 0.3 991.3 5.4
2016-Sep-26 01:00S 52°18' E 133°04'2 0.6 995.3 5.3
2016-Sep-25 22:00S 52°18' E 133°02'1 0.3 995.7 5.2
2016-Sep-25 20:00S 52°19' E 133°02'1 1.2 995.6 5.2
2016-Sep-25 19:00S 52°18' E 133°01'0 0.3 995.4 5.2
2016-Sep-25 18:00S 52°18' E 133°01'1 0.8 995.1 5.3
2016-Sep-25 17:00S 52°18' E 132°59'0 0.1 995.1 5.3
2016-Sep-25 16:00S 52°18' E 132°59'2 0.8 995.1 5.3
2016-Sep-25 14:00S 52°19' E 132°57'0 0.0 994.6 5.3
2016-Sep-25 13:00S 52°19' E 132°57'0 0.4 994.6 5.3
2016-Sep-25 12:00S 52°19' E 132°56'2 0.6 994.3 5.3
2016-Sep-25 08:00S 52°18' E 132°53'1 0.7 992.2 5.4
2016-Sep-25 07:00S 52°18' E 132°51'0 0.1 991.8 5.4
2016-Sep-25 06:00S 52°18' E 132°52'3 1.5 991.8 5.4
2016-Sep-25 04:00S 52°18' E 132°47'0 0.0 991.1 5.3
2016-Sep-25 01:00S 52°18' E 132°47'0 0.0 990.5 5.3
2016-Sep-25 00:00S 52°18' E 132°47'5 0.9 990.1 5.4
2016-Sep-24 18:00S 52°17' E 132°38'0 0.0 989.7 5.4
2016-Sep-24 17:00S 52°17' E 132°38'0 0.2 989.9 5.4
2016-Sep-24 16:00S 52°17' E 132°38'2 1.2 990.5 5.4
2016-Sep-24 14:00S 52°17' E 132°34'1 0.3 990.8 5.5
2016-Sep-24 10:00S 52°17' E 132°32'1 0.6 990.3 5.5
2016-Sep-24 09:00S 52°17' E 132°31'2 0.6 989.8 5.5
2016-Sep-24 06:00S 52°17' E 132°28'1 0.3 988.4 5.5
2016-Sep-24 04:00S 52°17' E 132°27'2 0.5 988.1 5.6
2016-Sep-24 00:00S 52°17' E 132°24'1 0.4 988.3 5.6
2016-Sep-23 21:00S 52°16' E 132°22'0 0.3 988.3 5.4
2016-Sep-23 20:00S 52°16' E 132°21'1 0.8 988.5 5.4
2016-Sep-23 19:00S 52°16' E 132°21'0 0.1 988.9 5.4
2016-Sep-23 18:00S 52°16' E 132°21'1 0.5 989.3 5.4
2016-Sep-23 16:00S 52°15' E 132°19'3 0.7 990.7 5.3
2016-Sep-23 11:00S 52°12' E 132°16'1 1.2 992.9 5.4
2016-Sep-23 10:00S 52°11' E 132°15'0 0.5 992.9 5.5
2016-Sep-23 09:00S 52°11' E 132°15'1 0.4 993.1 5.5
2016-Sep-23 07:00S 52°10' E 132°15'2 2.4 993.4 5.5
2016-Sep-23 06:00S 52°08' E 132°12'0 0.0 993.7 5.4
2016-Sep-23 05:00S 52°08' E 132°12'5 0.9 993.6 5.4
2016-Sep-23 00:00S 52°05' E 132°08'4 1.3 996.7 5.2
2016-Sep-22 21:00S 52°01' E 132°04'2 1.7 998.1 5.1
2016-Sep-22 20:00S 52°01' E 132°02'0 0.2 998.8 5.1
2016-Sep-22 19:00S 52°01' E 132°02'0 0.4 999.3 5.1
2016-Sep-22 18:00S 52°00' E 132°01'3 1.6 999.5 5.1
2016-Sep-22 16:00S 51°59' E 131°57'0 0.0 1000.7 5.1
2016-Sep-22 15:00S 51°59' E 131°57'1 1.5 1001.2 5.1
2016-Sep-22 14:00S 51°58' E 131°55'2 0.7 1001.7 5.1
2016-Sep-22 11:00S 51°56' E 131°53'1 0.6 1003.7 5.2
2016-Sep-22 09:00S 51°56' E 131°51'1 1.3 1004.4 5.1
2016-Sep-22 08:00S 51°56' E 131°49'0 0.4 1004.6 5.1
2016-Sep-22 07:00S 51°56' E 131°49'1 1.3 1004.9 5.1
2016-Sep-22 06:00S 51°56' E 131°47'0 0.0 1005.9 5.2
2016-Sep-22 05:00S 51°56' E 131°47'3 0.8 1006.4 5.2
2016-Sep-22 01:00S 51°58' E 131°42'1 0.5 1009.6 5.0
2016-Sep-21 23:00S 51°58' E 131°40'1 1.4 1010.5 4.9
2016-Sep-21 22:00S 51°59' E 131°39'1 0.7 1010.7 4.7
2016-Sep-21 21:00S 51°59' E 131°38'1 0.6 1010.4 4.7
2016-Sep-21 19:00S 51°60' E 131°36'2 0.9 1010.1 4.6
2016-Sep-21 17:00S 52°00' E 131°34'1 0.4 1009.9 4.6
2016-Sep-21 15:00S 52°00' E 131°32'3 0.5 1009.1 4.7
2016-Sep-21 10:00S 52°01' E 131°28'1 1.1 1004.8 4.7
2016-Sep-21 09:00S 52°02' E 131°28'1 1.0 1003.0 4.7
2016-Sep-21 08:00S 52°02' E 131°30'2 1.7 1000.7 4.7
2016-Sep-21 07:00S 52°03' E 131°27'2 1.8 999.0 4.7
2016-Sep-21 06:00S 52°04' E 131°24'0 0.1 996.9 4.7
2016-Sep-21 05:00S 52°04' E 131°24'5 1.3 994.6 4.7
2016-Sep-21 01:00S 52°04' E 131°16'0 0.0 990.2 4.7
2016-Sep-21 00:00S 52°04' E 131°16'1 1.3 991.0 4.7
2016-Sep-20 23:00S 52°04' E 131°14'1 0.8 991.8 4.7
2016-Sep-20 22:00S 52°04' E 131°12'0 0.3 992.5 4.7
2016-Sep-20 21:00S 52°04' E 131°12'2 1.5 993.1 4.7
2016-Sep-20 20:00S 52°04' E 131°10'0 0.1 994.0 4.7
2016-Sep-20 19:00S 52°04' E 131°10'4 1.8 994.9 4.7
2016-Sep-20 17:00S 52°03' E 131°04'2 0.4 996.9 4.8
2016-Sep-20 12:00S 52°04' E 131°01'5 1.0 999.4 4.9
2016-Sep-20 07:00S 52°05' E 130°53'2 1.1 997.5 5.1
2016-Sep-20 05:00S 52°05' E 130°49'4 0.9 996.7 5.2
2016-Sep-20 01:00S 52°05' E 130°43'1 1.5 996.4 5.3
2016-Sep-20 00:00S 52°06' E 130°41'0 0.0 996.1 5.2
2016-Sep-19 23:00S 52°06' E 130°41'1 0.7 995.8 5.1
2016-Sep-19 22:00S 52°05' E 130°40'2 1.6 994.9 5.2
2016-Sep-19 21:00S 52°06' E 130°37'1 1.3 993.7 5.0
2016-Sep-19 20:00S 52°06' E 130°35'1 0.9 992.9 5.2
2016-Sep-19 19:00S 52°07' E 130°35'3 2.8 991.3 5.2
2016-Sep-19 18:00S 52°07' E 130°30'3 0.8 990.7 5.2
2016-Sep-19 14:00S 52°09' E 130°26'3 0.9 987.1 5.4
2016-Sep-19 11:00S 52°10' E 130°22'0 0.3 984.1 5.4
2016-Sep-19 10:00S 52°10' E 130°23'2 0.7 983.0 5.4
2016-Sep-19 07:00S 52°11' E 130°19'2 1.0 979.4 5.4
2016-Sep-19 05:00S 52°11' E 130°16'3 1.1 977.4 5.5
2016-Sep-19 02:00S 52°11' E 130°11'1 0.5 975.8 5.5
2016-Sep-19 00:00S 52°11' E 130°09'1 0.5 975.0 5.5
2016-Sep-18 22:00S 52°12' E 130°08'3 1.4 974.0 5.5
2016-Sep-18 20:00S 52°12' E 130°04'2 0.8 972.9 5.5
2016-Sep-18 18:00S 52°13' E 130°01'0 0.0 971.0 5.4
2016-Sep-18 17:00S 52°13' E 130°01'1 1.5 970.6 5.4
2016-Sep-18 16:00S 52°12' E 129°59'1 0.7 971.0 5.4
2016-Sep-18 15:00S 52°12' E 129°57'1 0.7 971.2 5.4
2016-Sep-18 13:00S 52°12' E 129°55'2 0.6 973.1 5.4
2016-Sep-18 10:00S 52°12' E 129°52'0 0.3 978.5 5.4
2016-Sep-18 09:00S 52°12' E 129°52'1 0.5 980.0 5.4
2016-Sep-18 08:00S 52°12' E 129°51'0 0.0 981.3 5.3
2016-Sep-18 07:00S 52°12' E 129°51'1 1.1 982.3 5.2
2016-Sep-18 06:00S 52°12' E 129°49'0 0.0 983.5 5.2
2016-Sep-18 05:00S 52°12' E 129°49'5 1.0 985.0 5.2
2016-Sep-18 00:00S 52°10' E 129°42'0 0.0 989.7 5.2
2016-Sep-17 23:00S 52°10' E 129°42'0 0.3 990.4 5.1
2016-Sep-17 22:00S 52°10' E 129°41'3 1.3 990.6 5.1
2016-Sep-17 20:00S 52°09' E 129°37'6 2.1 991.1 5.1
2016-Sep-17 17:00S 52°08' E 129°27'0 0.0 992.8 5.1
2016-Sep-17 16:00S 52°08' E 129°27'2 2.3 992.8 4.9
2016-Sep-17 15:00S 52°08' E 129°24'1 1.1 993.0 5.1
2016-Sep-17 14:00S 52°08' E 129°22'2 2.0 993.0 4.9
2016-Sep-17 13:00S 52°08' E 129°19'1 0.6 992.9 4.9
2016-Sep-17 12:00S 52°08' E 129°18'7 1.4 992.8 4.9
2016-Sep-17 07:00S 52°13' E 129°09'9 9.0 990.7 5.6
2016-Sep-17 06:00S 52°16' E 128°55'1 0.2 990.3 5.7
2016-Sep-17 01:00S 52°16' E 128°55'3 1.5 989.3 5.9
2016-Sep-16 23:00S 52°17' E 128°50'3 3.0 989.7 5.9
2016-Sep-16 22:00S 52°16' E 128°45'   990.1 5.9

Dump ship's entire track history